sensor_id;sensor_type;location;lat;lon;timestamp;temperature;humidity
1367;DHT22;16877;48.810;9.282;2022-11-22T00:02:25;16.40;51.30
1367;DHT22;16877;48.810;9.282;2022-11-22T00:04:51;16.50;51.40
1367;DHT22;16877;48.810;9.282;2022-11-22T00:07:18;16.50;51.50
1367;DHT22;16877;48.810;9.282;2022-11-22T00:09:46;16.50;51.50
1367;DHT22;16877;48.810;9.282;2022-11-22T00:12:13;16.50;51.40
1367;DHT22;16877;48.810;9.282;2022-11-22T00:14:39;16.50;51.40
1367;DHT22;16877;48.810;9.282;2022-11-22T00:17:06;16.50;51.40
1367;DHT22;16877;48.810;9.282;2022-11-22T00:19:33;16.50;51.40
1367;DHT22;16877;48.810;9.282;2022-11-22T00:22:03;16.50;51.40
1367;DHT22;16877;48.810;9.282;2022-11-22T00:24:30;16.50;51.40
1367;DHT22;16877;48.810;9.282;2022-11-22T00:26:58;16.60;51.60
1367;DHT22;16877;48.810;9.282;2022-11-22T00:29:25;16.50;51.60
1367;DHT22;16877;48.810;9.282;2022-11-22T00:31:51;16.50;51.60
1367;DHT22;16877;48.810;9.282;2022-11-22T00:34:18;16.50;51.70
1367;DHT22;16877;48.810;9.282;2022-11-22T00:36:45;16.50;51.60
1367;DHT22;16877;48.810;9.282;2022-11-22T00:39:12;16.50;51.60
1367;DHT22;16877;48.810;9.282;2022-11-22T00:41:38;16.40;51.50
1367;DHT22;16877;48.810;9.282;2022-11-22T00:44:06;16.30;51.30
1367;DHT22;16877;48.810;9.282;2022-11-22T00:46:33;16.20;51.30
1367;DHT22;16877;48.810;9.282;2022-11-22T00:49:00;16.20;51.30
1367;DHT22;16877;48.810;9.282;2022-11-22T00:51:26;16.20;51.30
1367;DHT22;16877;48.810;9.282;2022-11-22T00:53:53;16.20;51.40
1367;DHT22;16877;48.810;9.282;2022-11-22T00:56:20;16.10;51.30
1367;DHT22;16877;48.810;9.282;2022-11-22T00:58:46;16.00;51.30
1367;DHT22;16877;48.810;9.282;2022-11-22T01:01:14;16.10;51.30
1367;DHT22;16877;48.810;9.282;2022-11-22T01:03:41;16.00;51.30
1367;DHT22;16877;48.810;9.282;2022-11-22T01:06:08;16.00;51.40
1367;DHT22;16877;48.810;9.282;2022-11-22T01:08:34;16.00;51.40
1367;DHT22;16877;48.810;9.282;2022-11-22T01:11:01;15.80;51.50
1367;DHT22;16877;48.810;9.282;2022-11-22T01:13:28;15.80;51.60
1367;DHT22;16877;48.810;9.282;2022-11-22T01:15:58;15.80;51.70
1367;DHT22;16877;48.810;9.282;2022-11-22T01:18:26;15.90;51.70
1367;DHT22;16877;48.810;9.282;2022-11-22T01:20:53;15.90;51.80
1367;DHT22;16877;48.810;9.282;2022-11-22T01:23:20;15.90;51.80
1367;DHT22;16877;48.810;9.282;2022-11-22T01:25:47;15.90;51.80
1367;DHT22;16877;48.810;9.282;2022-11-22T01:28:13;15.90;51.90
1367;DHT22;16877;48.810;9.282;2022-11-22T01:30:41;15.90;51.90
1367;DHT22;16877;48.810;9.282;2022-11-22T01:33:08;16.00;51.90
1367;DHT22;16877;48.810;9.282;2022-11-22T01:35:36;16.00;51.90
1367;DHT22;16877;48.810;9.282;2022-11-22T01:38:03;16.00;51.90
1367;DHT22;16877;48.810;9.282;2022-11-22T01:40:30;16.00;52.00
1367;DHT22;16877;48.810;9.282;2022-11-22T01:42:58;16.00;52.10
1367;DHT22;16877;48.810;9.282;2022-11-22T01:45:49;16.00;52.20
1367;DHT22;16877;48.810;9.282;2022-11-22T01:48:30;16.00;52.30
1367;DHT22;16877;48.810;9.282;2022-11-22T01:51:00;16.00;52.40
1367;DHT22;16877;48.810;9.282;2022-11-22T01:53:31;15.90;52.30
1367;DHT22;16877;48.810;9.282;2022-11-22T01:56:01;16.00;52.40
1367;DHT22;16877;48.810;9.282;2022-11-22T01:58:30;15.90;52.40
1367;DHT22;16877;48.810;9.282;2022-11-22T02:00:57;15.90;52.40
1367;DHT22;16877;48.810;9.282;2022-11-22T02:03:25;15.90;52.60
1367;DHT22;16877;48.810;9.282;2022-11-22T02:05:53;15.90;52.60
1367;DHT22;16877;48.810;9.282;2022-11-22T02:08:27;15.90;52.50
1367;DHT22;16877;48.810;9.282;2022-11-22T02:10:58;16.00;52.60
1367;DHT22;16877;48.810;9.282;2022-11-22T02:13:27;15.90;52.60
1367;DHT22;16877;48.810;9.282;2022-11-22T02:15:54;16.00;52.60
1367;DHT22;16877;48.810;9.282;2022-11-22T02:18:21;16.00;52.60
1367;DHT22;16877;48.810;9.282;2022-11-22T02:20:48;16.00;52.60
1367;DHT22;16877;48.810;9.282;2022-11-22T02:23:20;16.00;52.60
1367;DHT22;16877;48.810;9.282;2022-11-22T02:25:55;16.00;52.70
1367;DHT22;16877;48.810;9.282;2022-11-22T02:28:22;16.00;52.70
1367;DHT22;16877;48.810;9.282;2022-11-22T02:30:50;16.00;52.70
1367;DHT22;16877;48.810;9.282;2022-11-22T02:33:17;16.00;52.80
1367;DHT22;16877;48.810;9.282;2022-11-22T02:35:44;16.00;53.00
1367;DHT22;16877;48.810;9.282;2022-11-22T02:38:13;16.10;53.30
1367;DHT22;16877;48.810;9.282;2022-11-22T02:40:43;16.10;53.30
1367;DHT22;16877;48.810;9.282;2022-11-22T02:43:16;16.10;53.30
1367;DHT22;16877;48.810;9.282;2022-11-22T02:45:44;16.10;53.30
1367;DHT22;16877;48.810;9.282;2022-11-22T02:48:12;16.10;53.30
1367;DHT22;16877;48.810;9.282;2022-11-22T02:50:39;16.10;53.40
1367;DHT22;16877;48.810;9.282;2022-11-22T02:53:07;16.20;53.60
1367;DHT22;16877;48.810;9.282;2022-11-22T02:55:34;16.10;53.70
1367;DHT22;16877;48.810;9.282;2022-11-22T02:58:01;16.10;53.80
1367;DHT22;16877;48.810;9.282;2022-11-22T03:00:32;16.00;53.80
1367;DHT22;16877;48.810;9.282;2022-11-22T03:02:59;16.00;54.00
1367;DHT22;16877;48.810;9.282;2022-11-22T03:05:26;15.90;53.90
1367;DHT22;16877;48.810;9.282;2022-11-22T03:07:52;15.90;54.00
1367;DHT22;16877;48.810;9.282;2022-11-22T03:10:19;15.90;54.00
1367;DHT22;16877;48.810;9.282;2022-11-22T03:12:46;15.90;54.10
1367;DHT22;16877;48.810;9.282;2022-11-22T03:15:12;15.80;54.10
1367;DHT22;16877;48.810;9.282;2022-11-22T03:17:40;15.80;54.20
1367;DHT22;16877;48.810;9.282;2022-11-22T03:20:08;15.80;54.20
1367;DHT22;16877;48.810;9.282;2022-11-22T03:22:34;15.70;54.20
1367;DHT22;16877;48.810;9.282;2022-11-22T03:25:01;15.70;54.20
1367;DHT22;16877;48.810;9.282;2022-11-22T03:27:28;15.70;54.30
1367;DHT22;16877;48.810;9.282;2022-11-22T03:29:55;15.70;54.40
1367;DHT22;16877;48.810;9.282;2022-11-22T03:32:21;15.70;54.40
1367;DHT22;16877;48.810;9.282;2022-11-22T03:34:49;15.70;54.40
1367;DHT22;16877;48.810;9.282;2022-11-22T03:37:16;15.60;54.50
1367;DHT22;16877;48.810;9.282;2022-11-22T03:39:43;15.60;54.60
1367;DHT22;16877;48.810;9.282;2022-11-22T03:42:09;15.70;54.60
1367;DHT22;16877;48.810;9.282;2022-11-22T03:44:36;15.60;54.60
1367;DHT22;16877;48.810;9.282;2022-11-22T03:47:03;15.60;54.60
1367;DHT22;16877;48.810;9.282;2022-11-22T03:49:29;15.60;54.70
1367;DHT22;16877;48.810;9.282;2022-11-22T03:51:57;15.60;54.70
1367;DHT22;16877;48.810;9.282;2022-11-22T03:54:24;15.60;54.80
1367;DHT22;16877;48.810;9.282;2022-11-22T03:56:51;15.50;54.70
1367;DHT22;16877;48.810;9.282;2022-11-22T03:59:17;15.60;54.80
1367;DHT22;16877;48.810;9.282;2022-11-22T04:01:44;15.60;54.70
1367;DHT22;16877;48.810;9.282;2022-11-22T04:04:11;15.60;54.70
1367;DHT22;16877;48.810;9.282;2022-11-22T04:06:38;15.60;54.70
1367;DHT22;16877;48.810;9.282;2022-11-22T04:09:06;15.60;54.60
1367;DHT22;16877;48.810;9.282;2022-11-22T04:11:32;15.70;54.70
1367;DHT22;16877;48.810;9.282;2022-11-22T04:13:59;15.70;54.60
1367;DHT22;16877;48.810;9.282;2022-11-22T04:16:44;15.70;54.60
1367;DHT22;16877;48.810;9.282;2022-11-22T04:19:10;15.60;54.60
1367;DHT22;16877;48.810;9.282;2022-11-22T04:21:37;15.60;54.60
1367;DHT22;16877;48.810;9.282;2022-11-22T04:24:06;15.60;54.60
1367;DHT22;16877;48.810;9.282;2022-11-22T04:26:52;15.60;54.60
1367;DHT22;16877;48.810;9.282;2022-11-22T04:29:19;15.60;54.60
1367;DHT22;16877;48.810;9.282;2022-11-22T04:31:47;15.60;54.70
1367;DHT22;16877;48.810;9.282;2022-11-22T04:34:31;15.60;54.70
1367;DHT22;16877;48.810;9.282;2022-11-22T04:36:58;15.60;54.60
1367;DHT22;16877;48.810;9.282;2022-11-22T04:39:26;15.60;55.20
1367;DHT22;16877;48.810;9.282;2022-11-22T04:41:53;15.60;54.60
1367;DHT22;16877;48.810;9.282;2022-11-22T04:44:45;15.60;54.50
1367;DHT22;16877;48.810;9.282;2022-11-22T04:47:13;15.70;54.60
1367;DHT22;16877;48.810;9.282;2022-11-22T04:50:04;15.70;54.50
1367;DHT22;16877;48.810;9.282;2022-11-22T04:52:53;15.70;54.40
1367;DHT22;16877;48.810;9.282;2022-11-22T04:55:20;15.70;54.40
1367;DHT22;16877;48.810;9.282;2022-11-22T04:57:47;15.80;54.40
1367;DHT22;16877;48.810;9.282;2022-11-22T05:00:15;15.70;54.30
1367;DHT22;16877;48.810;9.282;2022-11-22T05:02:41;15.70;54.30
1367;DHT22;16877;48.810;9.282;2022-11-22T05:05:08;15.70;54.20
1367;DHT22;16877;48.810;9.282;2022-11-22T05:07:35;15.70;54.20
1367;DHT22;16877;48.810;9.282;2022-11-22T05:10:02;15.70;54.20
1367;DHT22;16877;48.810;9.282;2022-11-22T05:12:30;15.80;54.20
1367;DHT22;16877;48.810;9.282;2022-11-22T05:14:57;15.70;54.20
1367;DHT22;16877;48.810;9.282;2022-11-22T05:17:23;15.70;54.10
1367;DHT22;16877;48.810;9.282;2022-11-22T05:19:50;15.70;54.10
1367;DHT22;16877;48.810;9.282;2022-11-22T05:22:17;15.70;54.00
1367;DHT22;16877;48.810;9.282;2022-11-22T05:25:04;15.70;54.00
1367;DHT22;16877;48.810;9.282;2022-11-22T05:27:31;15.70;53.80
1367;DHT22;16877;48.810;9.282;2022-11-22T05:29:58;15.70;53.80
1367;DHT22;16877;48.810;9.282;2022-11-22T05:32:25;15.70;54.30
1367;DHT22;16877;48.810;9.282;2022-11-22T05:34:51;15.70;54.30
1367;DHT22;16877;48.810;9.282;2022-11-22T05:37:18;15.70;53.70
1367;DHT22;16877;48.810;9.282;2022-11-22T05:39:44;15.60;53.60
1367;DHT22;16877;48.810;9.282;2022-11-22T05:42:11;15.70;53.60
1367;DHT22;16877;48.810;9.282;2022-11-22T05:44:39;15.70;53.60
1367;DHT22;16877;48.810;9.282;2022-11-22T05:47:06;15.70;53.60
1367;DHT22;16877;48.810;9.282;2022-11-22T05:49:33;15.70;53.50
1367;DHT22;16877;48.810;9.282;2022-11-22T05:52:00;15.70;53.50
1367;DHT22;16877;48.810;9.282;2022-11-22T05:54:27;15.70;53.40
1367;DHT22;16877;48.810;9.282;2022-11-22T05:56:54;15.70;53.40
1367;DHT22;16877;48.810;9.282;2022-11-22T05:59:20;15.70;53.30
1367;DHT22;16877;48.810;9.282;2022-11-22T06:01:49;15.70;53.30
1367;DHT22;16877;48.810;9.282;2022-11-22T06:04:15;15.70;53.40
1367;DHT22;16877;48.810;9.282;2022-11-22T06:06:42;15.70;53.40
1367;DHT22;16877;48.810;9.282;2022-11-22T06:09:11;15.70;53.40
1367;DHT22;16877;48.810;9.282;2022-11-22T06:11:38;15.80;53.40
1367;DHT22;16877;48.810;9.282;2022-11-22T06:14:07;15.80;53.40
1367;DHT22;16877;48.810;9.282;2022-11-22T06:16:34;15.80;53.40
1367;DHT22;16877;48.810;9.282;2022-11-22T06:19:02;15.90;53.40
1367;DHT22;16877;48.810;9.282;2022-11-22T06:21:29;15.90;53.40
1367;DHT22;16877;48.810;9.282;2022-11-22T06:23:56;15.90;53.30
1367;DHT22;16877;48.810;9.282;2022-11-22T06:26:23;16.00;53.40
1367;DHT22;16877;48.810;9.282;2022-11-22T06:28:50;16.00;53.30
1367;DHT22;16877;48.810;9.282;2022-11-22T06:31:19;16.00;53.30
1367;DHT22;16877;48.810;9.282;2022-11-22T06:33:46;16.00;53.30
1367;DHT22;16877;48.810;9.282;2022-11-22T06:36:15;16.10;53.30
1367;DHT22;16877;48.810;9.282;2022-11-22T06:38:43;16.10;53.30
1367;DHT22;16877;48.810;9.282;2022-11-22T06:41:11;16.10;53.30
1367;DHT22;16877;48.810;9.282;2022-11-22T06:43:39;16.10;53.30
1367;DHT22;16877;48.810;9.282;2022-11-22T06:46:07;16.10;53.30
1367;DHT22;16877;48.810;9.282;2022-11-22T06:48:35;16.10;53.30
1367;DHT22;16877;48.810;9.282;2022-11-22T06:51:03;16.20;53.50
1367;DHT22;16877;48.810;9.282;2022-11-22T06:53:33;16.20;53.50
1367;DHT22;16877;48.810;9.282;2022-11-22T06:56:00;16.20;53.50
1367;DHT22;16877;48.810;9.282;2022-11-22T06:58:28;16.20;53.50
1367;DHT22;16877;48.810;9.282;2022-11-22T07:00:59;16.20;53.50
1367;DHT22;16877;48.810;9.282;2022-11-22T07:03:26;16.20;53.60
1367;DHT22;16877;48.810;9.282;2022-11-22T07:05:52;16.20;53.60
1367;DHT22;16877;48.810;9.282;2022-11-22T07:08:20;16.20;53.60
1367;DHT22;16877;48.810;9.282;2022-11-22T07:10:48;16.20;53.60
1367;DHT22;16877;48.810;9.282;2022-11-22T07:13:15;16.20;53.60
1367;DHT22;16877;48.810;9.282;2022-11-22T07:15:42;16.20;53.60
1367;DHT22;16877;48.810;9.282;2022-11-22T07:18:09;16.30;53.70
1367;DHT22;16877;48.810;9.282;2022-11-22T07:20:35;16.20;53.50
1367;DHT22;16877;48.810;9.282;2022-11-22T07:23:02;16.20;53.50
1367;DHT22;16877;48.810;9.282;2022-11-22T07:25:29;16.20;53.30
1367;DHT22;16877;48.810;9.282;2022-11-22T07:27:57;16.10;53.20
1367;DHT22;16877;48.810;9.282;2022-11-22T07:30:23;16.10;53.10
1367;DHT22;16877;48.810;9.282;2022-11-22T07:32:50;16.10;53.00
1367;DHT22;16877;48.810;9.282;2022-11-22T07:35:17;16.10;52.90
1367;DHT22;16877;48.810;9.282;2022-11-22T07:37:43;16.50;59.20
1367;DHT22;16877;48.810;9.282;2022-11-22T07:40:11;16.70;57.50
1367;DHT22;16877;48.810;9.282;2022-11-22T07:42:38;16.70;54.70
1367;DHT22;16877;48.810;9.282;2022-11-22T07:45:07;16.70;53.80
1367;DHT22;16877;48.810;9.282;2022-11-22T07:47:34;16.60;53.40
1367;DHT22;16877;48.810;9.282;2022-11-22T07:50:00;16.50;53.00
1367;DHT22;16877;48.810;9.282;2022-11-22T07:52:27;16.50;52.90
1367;DHT22;16877;48.810;9.282;2022-11-22T07:54:54;16.50;52.90
1367;DHT22;16877;48.810;9.282;2022-11-22T07:57:21;16.50;52.80
1367;DHT22;16877;48.810;9.282;2022-11-22T07:59:47;16.40;52.70
1367;DHT22;16877;48.810;9.282;2022-11-22T08:02:15;16.40;52.70
1367;DHT22;16877;48.810;9.282;2022-11-22T08:04:42;16.40;52.70
1367;DHT22;16877;48.810;9.282;2022-11-22T08:07:09;16.40;52.70
1367;DHT22;16877;48.810;9.282;2022-11-22T08:09:36;16.40;52.70
1367;DHT22;16877;48.810;9.282;2022-11-22T08:12:03;16.40;52.70
1367;DHT22;16877;48.810;9.282;2022-11-22T08:14:29;16.30;52.70
1367;DHT22;16877;48.810;9.282;2022-11-22T08:16:56;16.30;52.70
1367;DHT22;16877;48.810;9.282;2022-11-22T08:19:24;16.30;52.70
1367;DHT22;16877;48.810;9.282;2022-11-22T08:21:52;16.20;52.70
1367;DHT22;16877;48.810;9.282;2022-11-22T08:24:19;16.20;52.70
1367;DHT22;16877;48.810;9.282;2022-11-22T08:26:46;16.20;52.70
1367;DHT22;16877;48.810;9.282;2022-11-22T08:29:13;16.20;52.70
1367;DHT22;16877;48.810;9.282;2022-11-22T08:31:39;16.20;52.70
1367;DHT22;16877;48.810;9.282;2022-11-22T08:34:06;16.20;52.70
1367;DHT22;16877;48.810;9.282;2022-11-22T08:36:34;16.20;52.70
1367;DHT22;16877;48.810;9.282;2022-11-22T08:39:01;16.20;52.80
1367;DHT22;16877;48.810;9.282;2022-11-22T08:41:28;16.30;52.80
1367;DHT22;16877;48.810;9.282;2022-11-22T08:43:55;16.30;52.70
1367;DHT22;16877;48.810;9.282;2022-11-22T08:46:22;16.30;52.70
1367;DHT22;16877;48.810;9.282;2022-11-22T08:48:51;16.30;52.70
1367;DHT22;16877;48.810;9.282;2022-11-22T08:51:18;16.40;52.80
1367;DHT22;16877;48.810;9.282;2022-11-22T08:53:46;16.40;52.70
1367;DHT22;16877;48.810;9.282;2022-11-22T08:56:13;16.50;52.80
1367;DHT22;16877;48.810;9.282;2022-11-22T08:58:41;16.50;52.70
1367;DHT22;16877;48.810;9.282;2022-11-22T09:01:09;16.50;52.60
1367;DHT22;16877;48.810;9.282;2022-11-22T09:03:36;16.50;52.60
1367;DHT22;16877;48.810;9.282;2022-11-22T09:06:06;16.50;52.60
1367;DHT22;16877;48.810;9.282;2022-11-22T09:08:33;16.60;53.20
1367;DHT22;16877;48.810;9.282;2022-11-22T09:11:03;16.60;53.20
1367;DHT22;16877;48.810;9.282;2022-11-22T09:13:30;16.70;52.60
1367;DHT22;16877;48.810;9.282;2022-11-22T09:16:00;16.70;52.60
1367;DHT22;16877;48.810;9.282;2022-11-22T09:18:27;16.70;52.60
1367;DHT22;16877;48.810;9.282;2022-11-22T09:20:57;16.70;52.60
1367;DHT22;16877;48.810;9.282;2022-11-22T09:23:24;16.80;52.70
1367;DHT22;16877;48.810;9.282;2022-11-22T09:25:55;16.80;52.80
1367;DHT22;16877;48.810;9.282;2022-11-22T09:28:25;16.90;52.80
1367;DHT22;16877;48.810;9.282;2022-11-22T09:30:58;16.90;52.70
1367;DHT22;16877;48.810;9.282;2022-11-22T09:33:25;16.90;52.70
1367;DHT22;16877;48.810;9.282;2022-11-22T09:35:58;16.90;52.70
1367;DHT22;16877;48.810;9.282;2022-11-22T09:38:25;16.90;52.70
1367;DHT22;16877;48.810;9.282;2022-11-22T09:40:52;17.00;52.60
1367;DHT22;16877;48.810;9.282;2022-11-22T09:43:25;17.00;52.60
1367;DHT22;16877;48.810;9.282;2022-11-22T09:46:06;17.00;52.40
1367;DHT22;16877;48.810;9.282;2022-11-22T09:48:49;17.00;52.40
1367;DHT22;16877;48.810;9.282;2022-11-22T09:51:24;17.00;52.30
1367;DHT22;16877;48.810;9.282;2022-11-22T09:53:54;17.10;52.40
1367;DHT22;16877;48.810;9.282;2022-11-22T09:56:24;17.10;52.30
1367;DHT22;16877;48.810;9.282;2022-11-22T09:58:56;17.10;52.30
1367;DHT22;16877;48.810;9.282;2022-11-22T10:01:26;17.00;52.20
1367;DHT22;16877;48.810;9.282;2022-11-22T10:04:00;17.00;52.10
1367;DHT22;16877;48.810;9.282;2022-11-22T10:06:31;16.90;52.00
1367;DHT22;16877;48.810;9.282;2022-11-22T10:09:07;16.90;52.10
1367;DHT22;16877;48.810;9.282;2022-11-22T10:11:43;16.90;52.10
1367;DHT22;16877;48.810;9.282;2022-11-22T10:14:21;16.80;52.10
1367;DHT22;16877;48.810;9.282;2022-11-22T10:16:54;16.80;52.10
1367;DHT22;16877;48.810;9.282;2022-11-22T10:19:27;16.90;52.10
1367;DHT22;16877;48.810;9.282;2022-11-22T10:21:55;16.90;52.00
1367;DHT22;16877;48.810;9.282;2022-11-22T10:24:22;16.90;52.00
1367;DHT22;16877;48.810;9.282;2022-11-22T10:26:48;17.00;52.10
1367;DHT22;16877;48.810;9.282;2022-11-22T10:29:24;17.00;52.00
1367;DHT22;16877;48.810;9.282;2022-11-22T10:31:58;17.10;52.00
1367;DHT22;16877;48.810;9.282;2022-11-22T10:34:36;17.10;51.90
1367;DHT22;16877;48.810;9.282;2022-11-22T10:37:12;17.10;51.90
1367;DHT22;16877;48.810;9.282;2022-11-22T10:39:53;17.10;51.80
1367;DHT22;16877;48.810;9.282;2022-11-22T10:42:33;17.10;51.60
1367;DHT22;16877;48.810;9.282;2022-11-22T10:45:11;17.00;51.40
1367;DHT22;16877;48.810;9.282;2022-11-22T10:47:48;17.00;53.90
1367;DHT22;16877;48.810;9.282;2022-11-22T10:50:21;17.20;53.60
1367;DHT22;16877;48.810;9.282;2022-11-22T10:52:56;17.20;52.20
1367;DHT22;16877;48.810;9.282;2022-11-22T10:55:40;17.10;51.50
1367;DHT22;16877;48.810;9.282;2022-11-22T10:58:16;17.10;51.20
1367;DHT22;16877;48.810;9.282;2022-11-22T11:00:54;17.10;51.10
1367;DHT22;16877;48.810;9.282;2022-11-22T11:03:25;17.00;51.00
1367;DHT22;16877;48.810;9.282;2022-11-22T11:05:57;17.10;51.00
1367;DHT22;16877;48.810;9.282;2022-11-22T11:08:30;17.10;51.00
1367;DHT22;16877;48.810;9.282;2022-11-22T11:11:00;17.10;50.80
1367;DHT22;16877;48.810;9.282;2022-11-22T11:13:30;17.10;50.70
1367;DHT22;16877;48.810;9.282;2022-11-22T11:16:00;17.10;50.70
1367;DHT22;16877;48.810;9.282;2022-11-22T11:18:31;17.20;50.80
1367;DHT22;16877;48.810;9.282;2022-11-22T11:21:04;17.20;50.60
1367;DHT22;16877;48.810;9.282;2022-11-22T11:23:31;17.20;50.40
1367;DHT22;16877;48.810;9.282;2022-11-22T11:26:15;17.20;50.30
1367;DHT22;16877;48.810;9.282;2022-11-22T11:28:43;17.30;50.30
1367;DHT22;16877;48.810;9.282;2022-11-22T11:31:12;17.40;50.30
1367;DHT22;16877;48.810;9.282;2022-11-22T11:33:40;17.40;50.10
1367;DHT22;16877;48.810;9.282;2022-11-22T11:36:09;17.50;50.00
1367;DHT22;16877;48.810;9.282;2022-11-22T11:38:49;17.50;49.70
1367;DHT22;16877;48.810;9.282;2022-11-22T11:41:24;17.50;49.60
1367;DHT22;16877;48.810;9.282;2022-11-22T11:43:52;17.50;49.50
1367;DHT22;16877;48.810;9.282;2022-11-22T11:46:21;17.60;49.30
1367;DHT22;16877;48.810;9.282;2022-11-22T11:48:49;17.60;49.10
1367;DHT22;16877;48.810;9.282;2022-11-22T11:51:19;17.60;48.90
1367;DHT22;16877;48.810;9.282;2022-11-22T11:53:53;17.70;48.90
1367;DHT22;16877;48.810;9.282;2022-11-22T11:56:33;17.80;48.70
1367;DHT22;16877;48.810;9.282;2022-11-22T11:59:05;17.90;48.80
1367;DHT22;16877;48.810;9.282;2022-11-22T12:01:35;18.00;48.70
1367;DHT22;16877;48.810;9.282;2022-11-22T12:04:04;18.00;48.60
1367;DHT22;16877;48.810;9.282;2022-11-22T12:06:32;18.10;48.30
1367;DHT22;16877;48.810;9.282;2022-11-22T12:09:00;18.10;48.30
1367;DHT22;16877;48.810;9.282;2022-11-22T12:11:33;18.20;48.00
1367;DHT22;16877;48.810;9.282;2022-11-22T12:14:03;18.30;48.10
1367;DHT22;16877;48.810;9.282;2022-11-22T12:16:35;18.40;47.90
1367;DHT22;16877;48.810;9.282;2022-11-22T12:19:14;18.60;47.90
1367;DHT22;16877;48.810;9.282;2022-11-22T12:21:46;18.70;47.70
1367;DHT22;16877;48.810;9.282;2022-11-22T12:24:22;18.80;49.80
1367;DHT22;16877;48.810;9.282;2022-11-22T12:26:50;18.90;48.70
1367;DHT22;16877;48.810;9.282;2022-11-22T12:29:17;19.00;47.80
1367;DHT22;16877;48.810;9.282;2022-11-22T12:31:48;19.10;47.50
1367;DHT22;16877;48.810;9.282;2022-11-22T12:34:22;19.20;47.20
1367;DHT22;16877;48.810;9.282;2022-11-22T12:36:52;19.30;46.90
1367;DHT22;16877;48.810;9.282;2022-11-22T12:39:24;19.30;46.80
1367;DHT22;16877;48.810;9.282;2022-11-22T12:41:55;19.40;46.70
1367;DHT22;16877;48.810;9.282;2022-11-22T12:44:25;19.40;46.50
1367;DHT22;16877;48.810;9.282;2022-11-22T12:46:58;19.50;46.40
1367;DHT22;16877;48.810;9.282;2022-11-22T12:49:30;19.50;46.30
1367;DHT22;16877;48.810;9.282;2022-11-22T12:52:03;19.50;46.20
1367;DHT22;16877;48.810;9.282;2022-11-22T12:54:37;19.60;46.00
1367;DHT22;16877;48.810;9.282;2022-11-22T12:57:12;19.60;45.80
1367;DHT22;16877;48.810;9.282;2022-11-22T12:59:44;19.70;49.70
1367;DHT22;16877;48.810;9.282;2022-11-22T13:02:22;19.80;47.40
1367;DHT22;16877;48.810;9.282;2022-11-22T13:04:55;19.80;46.40
1367;DHT22;16877;48.810;9.282;2022-11-22T13:07:28;19.90;46.10
1367;DHT22;16877;48.810;9.282;2022-11-22T13:10:06;19.90;45.90
1367;DHT22;16877;48.810;9.282;2022-11-22T13:12:36;19.90;45.80
1367;DHT22;16877;48.810;9.282;2022-11-22T13:15:04;20.00;45.70
1367;DHT22;16877;48.810;9.282;2022-11-22T13:17:33;20.20;45.60
1367;DHT22;16877;48.810;9.282;2022-11-22T13:20:05;20.20;45.60
1367;DHT22;16877;48.810;9.282;2022-11-22T13:22:41;20.40;45.40
1367;DHT22;16877;48.810;9.282;2022-11-22T13:25:28;20.50;45.10
1367;DHT22;16877;48.810;9.282;2022-11-22T13:27:56;20.50;44.90
1367;DHT22;16877;48.810;9.282;2022-11-22T13:30:26;20.80;54.00
1367;DHT22;16877;48.810;9.282;2022-11-22T13:32:56;21.30;55.20
1367;DHT22;16877;48.810;9.282;2022-11-22T13:35:27;21.80;55.10
1367;DHT22;16877;48.810;9.282;2022-11-22T13:37:56;22.10;53.90
1367;DHT22;16877;48.810;9.282;2022-11-22T13:40:28;22.40;53.00
1367;DHT22;16877;48.810;9.282;2022-11-22T13:43:31;22.60;52.60
1367;DHT22;16877;48.810;9.282;2022-11-22T13:45:59;22.80;51.70
1367;DHT22;16877;48.810;9.282;2022-11-22T13:49:07;22.90;50.60
1367;DHT22;16877;48.810;9.282;2022-11-22T13:51:52;23.00;50.70
1367;DHT22;16877;48.810;9.282;2022-11-22T13:55:01;23.20;50.40
1367;DHT22;16877;48.810;9.282;2022-11-22T13:57:33;23.20;49.60
1367;DHT22;16877;48.810;9.282;2022-11-22T14:03:32;23.40;49.20
1367;DHT22;16877;48.810;9.282;2022-11-22T14:06:23;23.50;49.20
1367;DHT22;16877;48.810;9.282;2022-11-22T14:09:13;23.30;46.00
1367;DHT22;16877;48.810;9.282;2022-11-22T14:11:47;23.00;44.50
1367;DHT22;16877;48.810;9.282;2022-11-22T14:14:23;22.60;43.80
1367;DHT22;16877;48.810;9.282;2022-11-22T14:17:00;22.30;43.10
1367;DHT22;16877;48.810;9.282;2022-11-22T14:19:35;22.00;42.90
1367;DHT22;16877;48.810;9.282;2022-11-22T14:22:28;21.70;42.90
1367;DHT22;16877;48.810;9.282;2022-11-22T14:25:15;21.40;42.50
1367;DHT22;16877;48.810;9.282;2022-11-22T14:27:49;21.10;42.60
1367;DHT22;16877;48.810;9.282;2022-11-22T14:30:18;20.90;42.50
1367;DHT22;16877;48.810;9.282;2022-11-22T14:32:52;20.80;42.80
1367;DHT22;16877;48.810;9.282;2022-11-22T14:35:29;20.60;42.90
1367;DHT22;16877;48.810;9.282;2022-11-22T14:38:03;20.50;43.10
1367;DHT22;16877;48.810;9.282;2022-11-22T14:40:41;20.30;42.80
1367;DHT22;16877;48.810;9.282;2022-11-22T14:43:28;20.10;43.50
1367;DHT22;16877;48.810;9.282;2022-11-22T14:46:00;20.00;43.00
1367;DHT22;16877;48.810;9.282;2022-11-22T14:48:31;19.80;43.10
1367;DHT22;16877;48.810;9.282;2022-11-22T14:51:05;19.60;43.00
1367;DHT22;16877;48.810;9.282;2022-11-22T14:53:50;19.50;43.20
1367;DHT22;16877;48.810;9.282;2022-11-22T14:56:26;19.30;43.20
1367;DHT22;16877;48.810;9.282;2022-11-22T14:59:03;19.20;43.40
1367;DHT22;16877;48.810;9.282;2022-11-22T15:01:46;19.10;43.50
1367;DHT22;16877;48.810;9.282;2022-11-22T15:04:39;19.00;43.50
1367;DHT22;16877;48.810;9.282;2022-11-22T15:07:21;18.80;43.50
1367;DHT22;16877;48.810;9.282;2022-11-22T15:10:15;18.60;43.60
1367;DHT22;16877;48.810;9.282;2022-11-22T15:13:11;18.50;43.80
1367;DHT22;16877;48.810;9.282;2022-11-22T15:15:41;18.30;43.90
1367;DHT22;16877;48.810;9.282;2022-11-22T15:18:16;18.30;44.20
1367;DHT22;16877;48.810;9.282;2022-11-22T15:20:43;18.10;44.10
1367;DHT22;16877;48.810;9.282;2022-11-22T15:23:16;18.10;44.40
1367;DHT22;16877;48.810;9.282;2022-11-22T15:25:46;18.00;44.50
1367;DHT22;16877;48.810;9.282;2022-11-22T15:28:15;17.90;44.50
1367;DHT22;16877;48.810;9.282;2022-11-22T15:30:42;17.90;44.70
1367;DHT22;16877;48.810;9.282;2022-11-22T15:33:30;17.90;44.80
1367;DHT22;16877;48.810;9.282;2022-11-22T15:36:12;17.80;44.90
1367;DHT22;16877;48.810;9.282;2022-11-22T15:38:41;17.70;45.00
1367;DHT22;16877;48.810;9.282;2022-11-22T15:41:15;17.60;45.10
1367;DHT22;16877;48.810;9.282;2022-11-22T15:43:43;17.60;45.20
1367;DHT22;16877;48.810;9.282;2022-11-22T15:46:12;17.60;45.30
1367;DHT22;16877;48.810;9.282;2022-11-22T15:48:41;17.50;45.30
1367;DHT22;16877;48.810;9.282;2022-11-22T15:51:22;17.50;45.50
1367;DHT22;16877;48.810;9.282;2022-11-22T15:56:48;17.40;45.70
1367;DHT22;16877;48.810;9.282;2022-11-22T15:59:23;17.30;45.70
1367;DHT22;16877;48.810;9.282;2022-11-22T16:01:52;17.30;45.90
1367;DHT22;16877;48.810;9.282;2022-11-22T16:04:22;17.30;45.90
1367;DHT22;16877;48.810;9.282;2022-11-22T16:06:52;17.20;45.90
1367;DHT22;16877;48.810;9.282;2022-11-22T16:09:30;17.10;45.70
1367;DHT22;16877;48.810;9.282;2022-11-22T16:12:00;17.00;45.80
1367;DHT22;16877;48.810;9.282;2022-11-22T16:14:40;16.90;45.80